sensor_id;sensor_type;location;lat;lon;timestamp;temperature;humidity
13976;DHT22;7062;49.792;9.946;2023-07-16T00:00:11;23.10;99.90
13976;DHT22;7062;49.792;9.946;2023-07-16T00:02:38;23.00;99.90
13976;DHT22;7062;49.792;9.946;2023-07-16T00:05:04;23.50;99.90
13976;DHT22;7062;49.792;9.946;2023-07-16T00:07:29;23.20;99.90
13976;DHT22;7062;49.792;9.946;2023-07-16T00:09:55;23.30;99.90
13976;DHT22;7062;49.792;9.946;2023-07-16T00:12:21;23.30;99.90
13976;DHT22;7062;49.792;9.946;2023-07-16T00:14:47;23.20;99.90
13976;DHT22;7062;49.792;9.946;2023-07-16T00:17:13;23.10;99.90
13976;DHT22;7062;49.792;9.946;2023-07-16T00:19:39;23.00;99.90
13976;DHT22;7062;49.792;9.946;2023-07-16T00:22:04;22.90;99.90
13976;DHT22;7062;49.792;9.946;2023-07-16T00:24:30;22.70;99.90
13976;DHT22;7062;49.792;9.946;2023-07-16T00:26:57;22.50;99.90
13976;DHT22;7062;49.792;9.946;2023-07-16T00:29:22;22.50;99.90
13976;DHT22;7062;49.792;9.946;2023-07-16T00:31:48;22.40;99.90
13976;DHT22;7062;49.792;9.946;2023-07-16T00:34:14;22.40;99.90
13976;DHT22;7062;49.792;9.946;2023-07-16T00:36:39;22.40;99.90
13976;DHT22;7062;49.792;9.946;2023-07-16T00:39:05;22.50;99.90
13976;DHT22;7062;49.792;9.946;2023-07-16T00:41:31;22.50;99.90
13976;DHT22;7062;49.792;9.946;2023-07-16T00:43:57;22.60;99.90
13976;DHT22;7062;49.792;9.946;2023-07-16T00:46:23;22.50;99.90
13976;DHT22;7062;49.792;9.946;2023-07-16T00:48:49;22.50;99.90
13976;DHT22;7062;49.792;9.946;2023-07-16T00:51:15;22.50;99.90
13976;DHT22;7062;49.792;9.946;2023-07-16T00:53:41;22.40;99.90
13976;DHT22;7062;49.792;9.946;2023-07-16T00:56:09;22.50;99.90
13976;DHT22;7062;49.792;9.946;2023-07-16T00:58:35;22.50;99.90
13976;DHT22;7062;49.792;9.946;2023-07-16T01:01:00;22.50;99.90
13976;DHT22;7062;49.792;9.946;2023-07-16T01:03:26;22.50;99.90
13976;DHT22;7062;49.792;9.946;2023-07-16T01:06:18;22.50;99.90
13976;DHT22;7062;49.792;9.946;2023-07-16T01:09:26;22.40;99.90
13976;DHT22;7062;49.792;9.946;2023-07-16T01:11:46;22.20;99.90
13976;DHT22;7062;49.792;9.946;2023-07-16T01:14:14;22.00;99.90
13976;DHT22;7062;49.792;9.946;2023-07-16T01:16:41;21.80;99.90
13976;DHT22;7062;49.792;9.946;2023-07-16T01:19:08;21.70;99.90
13976;DHT22;7062;49.792;9.946;2023-07-16T01:30:08;22.10;99.90
13976;DHT22;7062;49.792;9.946;2023-07-16T01:32:36;22.10;99.90
13976;DHT22;7062;49.792;9.946;2023-07-16T01:35:04;22.10;99.90
13976;DHT22;7062;49.792;9.946;2023-07-16T01:37:31;22.10;99.90
13976;DHT22;7062;49.792;9.946;2023-07-16T01:39:57;22.10;99.90
13976;DHT22;7062;49.792;9.946;2023-07-16T01:42:23;22.10;99.90
13976;DHT22;7062;49.792;9.946;2023-07-16T01:44:48;22.20;99.90
13976;DHT22;7062;49.792;9.946;2023-07-16T01:47:24;22.10;99.90
13976;DHT22;7062;49.792;9.946;2023-07-16T01:49:53;22.20;99.90
13976;DHT22;7062;49.792;9.946;2023-07-16T01:52:19;22.30;99.90
13976;DHT22;7062;49.792;9.946;2023-07-16T01:54:44;21.90;99.90
13976;DHT22;7062;49.792;9.946;2023-07-16T01:57:10;21.70;99.90
13976;DHT22;7062;49.792;9.946;2023-07-16T01:59:35;21.60;99.90
13976;DHT22;7062;49.792;9.946;2023-07-16T02:02:01;21.40;99.90
13976;DHT22;7062;49.792;9.946;2023-07-16T02:04:27;21.40;99.90
13976;DHT22;7062;49.792;9.946;2023-07-16T02:06:52;21.30;99.90
13976;DHT22;7062;49.792;9.946;2023-07-16T02:09:18;21.30;99.90
13976;DHT22;7062;49.792;9.946;2023-07-16T02:11:44;21.30;99.90
13976;DHT22;7062;49.792;9.946;2023-07-16T02:14:09;21.20;99.90
13976;DHT22;7062;49.792;9.946;2023-07-16T02:16:35;21.10;99.90
13976;DHT22;7062;49.792;9.946;2023-07-16T02:19:00;21.20;99.90
13976;DHT22;7062;49.792;9.946;2023-07-16T02:21:26;21.20;99.90
13976;DHT22;7062;49.792;9.946;2023-07-16T02:23:52;21.20;99.90
13976;DHT22;7062;49.792;9.946;2023-07-16T02:26:17;21.10;99.90
13976;DHT22;7062;49.792;9.946;2023-07-16T02:28:43;21.00;99.90
13976;DHT22;7062;49.792;9.946;2023-07-16T02:31:09;21.10;99.90
13976;DHT22;7062;49.792;9.946;2023-07-16T02:33:34;21.10;99.90
13976;DHT22;7062;49.792;9.946;2023-07-16T02:36:00;21.00;99.90
13976;DHT22;7062;49.792;9.946;2023-07-16T02:38:26;21.00;99.90
13976;DHT22;7062;49.792;9.946;2023-07-16T02:40:51;20.90;99.90
13976;DHT22;7062;49.792;9.946;2023-07-16T02:43:17;20.90;99.90
13976;DHT22;7062;49.792;9.946;2023-07-16T02:45:42;20.90;99.90
13976;DHT22;7062;49.792;9.946;2023-07-16T02:48:08;20.90;99.90
13976;DHT22;7062;49.792;9.946;2023-07-16T02:50:35;20.90;99.90
13976;DHT22;7062;49.792;9.946;2023-07-16T02:53:02;20.90;99.90
13976;DHT22;7062;49.792;9.946;2023-07-16T02:55:27;20.90;99.90
13976;DHT22;7062;49.792;9.946;2023-07-16T02:57:53;20.90;99.90
13976;DHT22;7062;49.792;9.946;2023-07-16T03:00:18;20.80;99.90
13976;DHT22;7062;49.792;9.946;2023-07-16T03:02:44;20.90;99.90
13976;DHT22;7062;49.792;9.946;2023-07-16T03:05:10;20.90;99.90
13976;DHT22;7062;49.792;9.946;2023-07-16T03:07:35;20.90;99.90
13976;DHT22;7062;49.792;9.946;2023-07-16T03:10:01;20.80;99.90
13976;DHT22;7062;49.792;9.946;2023-07-16T03:12:26;20.80;99.90
13976;DHT22;7062;49.792;9.946;2023-07-16T03:14:52;20.70;99.90
13976;DHT22;7062;49.792;9.946;2023-07-16T03:17:20;20.70;99.90
13976;DHT22;7062;49.792;9.946;2023-07-16T03:19:47;20.60;99.90
13976;DHT22;7062;49.792;9.946;2023-07-16T03:22:12;20.60;99.90
13976;DHT22;7062;49.792;9.946;2023-07-16T03:24:38;20.60;99.90
13976;DHT22;7062;49.792;9.946;2023-07-16T03:27:04;20.60;99.90
13976;DHT22;7062;49.792;9.946;2023-07-16T03:29:29;20.60;99.90
13976;DHT22;7062;49.792;9.946;2023-07-16T03:31:55;20.50;99.90
13976;DHT22;7062;49.792;9.946;2023-07-16T03:34:21;20.50;99.90
13976;DHT22;7062;49.792;9.946;2023-07-16T03:36:47;20.50;99.90
13976;DHT22;7062;49.792;9.946;2023-07-16T03:39:12;20.50;99.90
13976;DHT22;7062;49.792;9.946;2023-07-16T03:41:38;20.40;99.90
13976;DHT22;7062;49.792;9.946;2023-07-16T03:44:04;20.40;99.90
13976;DHT22;7062;49.792;9.946;2023-07-16T03:46:29;20.30;99.90
13976;DHT22;7062;49.792;9.946;2023-07-16T03:48:55;20.30;99.90
13976;DHT22;7062;49.792;9.946;2023-07-16T03:51:20;20.30;99.90
13976;DHT22;7062;49.792;9.946;2023-07-16T03:53:46;20.20;99.90
13976;DHT22;7062;49.792;9.946;2023-07-16T03:56:12;20.10;99.90
13976;DHT22;7062;49.792;9.946;2023-07-16T03:58:37;20.10;99.90
13976;DHT22;7062;49.792;9.946;2023-07-16T04:01:03;20.00;99.90
13976;DHT22;7062;49.792;9.946;2023-07-16T04:03:29;20.00;99.90
13976;DHT22;7062;49.792;9.946;2023-07-16T04:06:04;19.90;99.90
13976;DHT22;7062;49.792;9.946;2023-07-16T04:08:30;19.90;99.90
13976;DHT22;7062;49.792;9.946;2023-07-16T04:10:56;20.00;99.90
13976;DHT22;7062;49.792;9.946;2023-07-16T04:13:21;20.00;99.90
13976;DHT22;7062;49.792;9.946;2023-07-16T04:15:47;19.90;99.90
13976;DHT22;7062;49.792;9.946;2023-07-16T04:18:12;19.90;99.90
13976;DHT22;7062;49.792;9.946;2023-07-16T04:20:38;19.90;99.90
13976;DHT22;7062;49.792;9.946;2023-07-16T04:23:04;19.90;99.90
13976;DHT22;7062;49.792;9.946;2023-07-16T04:25:29;19.90;99.90
13976;DHT22;7062;49.792;9.946;2023-07-16T04:27:56;19.90;99.90
13976;DHT22;7062;49.792;9.946;2023-07-16T04:30:22;19.90;99.90
13976;DHT22;7062;49.792;9.946;2023-07-16T04:32:47;20.00;99.90
13976;DHT22;7062;49.792;9.946;2023-07-16T04:35:13;20.10;99.90
13976;DHT22;7062;49.792;9.946;2023-07-16T04:37:39;20.00;99.90
13976;DHT22;7062;49.792;9.946;2023-07-16T04:40:05;20.10;99.90
13976;DHT22;7062;49.792;9.946;2023-07-16T04:42:31;20.20;99.90
13976;DHT22;7062;49.792;9.946;2023-07-16T04:44:57;20.30;99.90
13976;DHT22;7062;49.792;9.946;2023-07-16T04:47:22;20.30;99.90
13976;DHT22;7062;49.792;9.946;2023-07-16T04:49:48;20.30;99.90
13976;DHT22;7062;49.792;9.946;2023-07-16T04:52:13;20.20;99.90
13976;DHT22;7062;49.792;9.946;2023-07-16T04:54:39;20.20;99.90
13976;DHT22;7062;49.792;9.946;2023-07-16T04:57:08;20.20;99.90
13976;DHT22;7062;49.792;9.946;2023-07-16T04:59:34;20.20;99.90
13976;DHT22;7062;49.792;9.946;2023-07-16T05:02:01;20.20;99.90
13976;DHT22;7062;49.792;9.946;2023-07-16T05:04:27;20.20;99.90
13976;DHT22;7062;49.792;9.946;2023-07-16T05:06:52;20.20;99.90
13976;DHT22;7062;49.792;9.946;2023-07-16T05:09:18;20.20;99.90
13976;DHT22;7062;49.792;9.946;2023-07-16T05:11:45;20.10;99.90
13976;DHT22;7062;49.792;9.946;2023-07-16T05:14:11;20.20;99.90
13976;DHT22;7062;49.792;9.946;2023-07-16T05:16:36;20.20;99.90
13976;DHT22;7062;49.792;9.946;2023-07-16T05:19:02;20.20;99.90
13976;DHT22;7062;49.792;9.946;2023-07-16T05:21:28;20.20;99.90
13976;DHT22;7062;49.792;9.946;2023-07-16T05:23:53;20.20;99.90
13976;DHT22;7062;49.792;9.946;2023-07-16T05:26:19;20.30;99.90
13976;DHT22;7062;49.792;9.946;2023-07-16T05:28:44;20.30;99.90
13976;DHT22;7062;49.792;9.946;2023-07-16T05:31:10;20.30;99.90
13976;DHT22;7062;49.792;9.946;2023-07-16T05:33:36;20.30;99.90
13976;DHT22;7062;49.792;9.946;2023-07-16T05:36:02;20.40;99.90
13976;DHT22;7062;49.792;9.946;2023-07-16T05:38:27;20.50;99.90
13976;DHT22;7062;49.792;9.946;2023-07-16T05:40:53;20.60;99.90
13976;DHT22;7062;49.792;9.946;2023-07-16T05:43:18;20.70;99.90
13976;DHT22;7062;49.792;9.946;2023-07-16T05:45:44;20.60;99.90
13976;DHT22;7062;49.792;9.946;2023-07-16T05:48:10;20.70;99.90
13976;DHT22;7062;49.792;9.946;2023-07-16T05:50:35;20.60;99.90
13976;DHT22;7062;49.792;9.946;2023-07-16T05:53:01;20.60;99.90
13976;DHT22;7062;49.792;9.946;2023-07-16T05:55:26;20.60;99.90
13976;DHT22;7062;49.792;9.946;2023-07-16T05:57:53;20.60;99.90
13976;DHT22;7062;49.792;9.946;2023-07-16T06:00:18;20.70;99.90
13976;DHT22;7062;49.792;9.946;2023-07-16T06:02:44;20.40;99.90
13976;DHT22;7062;49.792;9.946;2023-07-16T06:05:09;20.20;99.90
13976;DHT22;7062;49.792;9.946;2023-07-16T06:07:35;20.40;99.90
13976;DHT22;7062;49.792;9.946;2023-07-16T06:10:01;20.50;99.90
13976;DHT22;7062;49.792;9.946;2023-07-16T06:12:26;20.60;99.90
13976;DHT22;7062;49.792;9.946;2023-07-16T06:14:52;20.60;99.90
13976;DHT22;7062;49.792;9.946;2023-07-16T06:17:18;20.70;99.90
13976;DHT22;7062;49.792;9.946;2023-07-16T06:19:44;20.60;99.90
13976;DHT22;7062;49.792;9.946;2023-07-16T06:22:09;20.50;99.90
13976;DHT22;7062;49.792;9.946;2023-07-16T06:24:35;20.40;99.90
13976;DHT22;7062;49.792;9.946;2023-07-16T06:27:01;20.40;99.90
13976;DHT22;7062;49.792;9.946;2023-07-16T06:29:27;20.30;99.90
13976;DHT22;7062;49.792;9.946;2023-07-16T06:31:56;20.30;99.90
13976;DHT22;7062;49.792;9.946;2023-07-16T06:34:23;20.10;99.90
13976;DHT22;7062;49.792;9.946;2023-07-16T06:36:48;20.20;99.90
13976;DHT22;7062;49.792;9.946;2023-07-16T06:39:14;20.10;99.90
13976;DHT22;7062;49.792;9.946;2023-07-16T06:41:40;20.00;99.90
13976;DHT22;7062;49.792;9.946;2023-07-16T06:44:05;20.10;99.90
13976;DHT22;7062;49.792;9.946;2023-07-16T06:46:31;20.30;99.90
13976;DHT22;7062;49.792;9.946;2023-07-16T06:48:57;20.30;99.90
13976;DHT22;7062;49.792;9.946;2023-07-16T06:51:22;20.40;99.90
13976;DHT22;7062;49.792;9.946;2023-07-16T06:53:48;20.60;99.90
13976;DHT22;7062;49.792;9.946;2023-07-16T06:56:14;20.60;99.90
13976;DHT22;7062;49.792;9.946;2023-07-16T06:58:40;20.60;99.90
13976;DHT22;7062;49.792;9.946;2023-07-16T07:01:06;20.70;99.90
13976;DHT22;7062;49.792;9.946;2023-07-16T07:03:32;20.60;99.90
13976;DHT22;7062;49.792;9.946;2023-07-16T07:06:04;20.60;99.90
13976;DHT22;7062;49.792;9.946;2023-07-16T07:08:30;20.70;99.90
13976;DHT22;7062;49.792;9.946;2023-07-16T07:10:55;20.70;99.90
13976;DHT22;7062;49.792;9.946;2023-07-16T07:13:21;20.80;99.90
13976;DHT22;7062;49.792;9.946;2023-07-16T07:15:47;20.70;99.90
13976;DHT22;7062;49.792;9.946;2023-07-16T07:18:13;20.60;99.90
13976;DHT22;7062;49.792;9.946;2023-07-16T07:20:39;20.70;99.90
13976;DHT22;7062;49.792;9.946;2023-07-16T07:23:05;20.40;99.90
13976;DHT22;7062;49.792;9.946;2023-07-16T07:25:31;20.40;99.90
13976;DHT22;7062;49.792;9.946;2023-07-16T07:27:56;20.20;99.90
13976;DHT22;7062;49.792;9.946;2023-07-16T07:30:22;20.00;99.90
13976;DHT22;7062;49.792;9.946;2023-07-16T07:32:48;20.00;99.90
13976;DHT22;7062;49.792;9.946;2023-07-16T07:35:14;20.00;99.90
13976;DHT22;7062;49.792;9.946;2023-07-16T07:37:39;20.00;99.90
13976;DHT22;7062;49.792;9.946;2023-07-16T07:40:05;20.10;99.90
13976;DHT22;7062;49.792;9.946;2023-07-16T07:42:33;20.50;99.90
13976;DHT22;7062;49.792;9.946;2023-07-16T07:44:58;20.70;99.90
13976;DHT22;7062;49.792;9.946;2023-07-16T07:47:24;20.60;99.90
13976;DHT22;7062;49.792;9.946;2023-07-16T07:49:52;20.60;99.90
13976;DHT22;7062;49.792;9.946;2023-07-16T07:52:18;20.50;99.90
13976;DHT22;7062;49.792;9.946;2023-07-16T07:54:43;20.50;99.90
13976;DHT22;7062;49.792;9.946;2023-07-16T07:57:09;20.40;99.90
13976;DHT22;7062;49.792;9.946;2023-07-16T07:59:35;20.30;99.90
13976;DHT22;7062;49.792;9.946;2023-07-16T08:02:00;20.50;99.90
13976;DHT22;7062;49.792;9.946;2023-07-16T08:04:29;20.50;99.90
13976;DHT22;7062;49.792;9.946;2023-07-16T08:06:56;20.80;99.90
13976;DHT22;7062;49.792;9.946;2023-07-16T08:09:21;21.00;99.90
13976;DHT22;7062;49.792;9.946;2023-07-16T08:11:47;20.90;99.90
13976;DHT22;7062;49.792;9.946;2023-07-16T08:14:13;21.00;99.90
13976;DHT22;7062;49.792;9.946;2023-07-16T08:16:38;21.10;99.90
13976;DHT22;7062;49.792;9.946;2023-07-16T08:19:04;21.30;99.90
13976;DHT22;7062;49.792;9.946;2023-07-16T08:21:30;21.40;99.90
13976;DHT22;7062;49.792;9.946;2023-07-16T08:23:55;21.20;99.90
13976;DHT22;7062;49.792;9.946;2023-07-16T08:26:21;21.40;99.90
13976;DHT22;7062;49.792;9.946;2023-07-16T08:28:47;21.40;99.90
13976;DHT22;7062;49.792;9.946;2023-07-16T08:31:13;21.40;99.90
13976;DHT22;7062;49.792;9.946;2023-07-16T08:33:39;21.50;99.90
13976;DHT22;7062;49.792;9.946;2023-07-16T08:36:04;21.80;99.90
13976;DHT22;7062;49.792;9.946;2023-07-16T08:38:30;21.90;99.90
13976;DHT22;7062;49.792;9.946;2023-07-16T08:40:56;21.90;99.90
13976;DHT22;7062;49.792;9.946;2023-07-16T08:43:22;21.80;99.90
13976;DHT22;7062;49.792;9.946;2023-07-16T08:45:48;21.80;99.90
13976;DHT22;7062;49.792;9.946;2023-07-16T08:48:16;21.90;99.90
13976;DHT22;7062;49.792;9.946;2023-07-16T08:50:46;21.90;99.90
13976;DHT22;7062;49.792;9.946;2023-07-16T08:53:12;22.10;99.90
13976;DHT22;7062;49.792;9.946;2023-07-16T08:55:40;22.10;99.90
13976;DHT22;7062;49.792;9.946;2023-07-16T08:58:06;22.20;99.90
13976;DHT22;7062;49.792;9.946;2023-07-16T09:00:32;22.30;99.90
13976;DHT22;7062;49.792;9.946;2023-07-16T09:02:59;22.30;99.90
13976;DHT22;7062;49.792;9.946;2023-07-16T09:05:25;22.30;99.90
13976;DHT22;7062;49.792;9.946;2023-07-16T09:07:50;22.40;99.90
13976;DHT22;7062;49.792;9.946;2023-07-16T09:10:16;22.50;99.90
13976;DHT22;7062;49.792;9.946;2023-07-16T09:12:44;22.60;99.90
13976;DHT22;7062;49.792;9.946;2023-07-16T09:15:11;22.50;99.90
13976;DHT22;7062;49.792;9.946;2023-07-16T09:17:37;22.40;99.90
13976;DHT22;7062;49.792;9.946;2023-07-16T09:20:04;22.30;99.90
13976;DHT22;7062;49.792;9.946;2023-07-16T09:22:31;22.50;99.90
13976;DHT22;7062;49.792;9.946;2023-07-16T09:24:56;22.60;99.90
13976;DHT22;7062;49.792;9.946;2023-07-16T09:27:28;22.80;99.90
13976;DHT22;7062;49.792;9.946;2023-07-16T09:29:54;23.40;99.90
13976;DHT22;7062;49.792;9.946;2023-07-16T09:32:20;23.40;99.90
13976;DHT22;7062;49.792;9.946;2023-07-16T09:34:49;23.20;99.90
13976;DHT22;7062;49.792;9.946;2023-07-16T09:37:16;23.30;99.90
13976;DHT22;7062;49.792;9.946;2023-07-16T09:39:46;23.50;99.90
13976;DHT22;7062;49.792;9.946;2023-07-16T09:42:12;23.60;99.90
13976;DHT22;7062;49.792;9.946;2023-07-16T09:44:39;23.90;99.90
13976;DHT22;7062;49.792;9.946;2023-07-16T09:47:07;24.30;99.90
13976;DHT22;7062;49.792;9.946;2023-07-16T09:49:32;24.60;99.90
13976;DHT22;7062;49.792;9.946;2023-07-16T09:51:59;24.50;99.90
13976;DHT22;7062;49.792;9.946;2023-07-16T09:54:31;24.20;99.90
13976;DHT22;7062;49.792;9.946;2023-07-16T09:56:59;24.30;99.90
13976;DHT22;7062;49.792;9.946;2023-07-16T09:59:29;24.50;99.90
13976;DHT22;7062;49.792;9.946;2023-07-16T10:01:56;25.00;99.90
13976;DHT22;7062;49.792;9.946;2023-07-16T10:04:25;25.00;99.90
13976;DHT22;7062;49.792;9.946;2023-07-16T10:06:54;25.10;99.90
13976;DHT22;7062;49.792;9.946;2023-07-16T10:09:40;25.80;99.90
13976;DHT22;7062;49.792;9.946;2023-07-16T10:12:13;27.10;99.90
13976;DHT22;7062;49.792;9.946;2023-07-16T10:17:06;28.60;98.40
13976;DHT22;7062;49.792;9.946;2023-07-16T10:19:45;29.20;97.20
13976;DHT22;7062;49.792;9.946;2023-07-16T10:22:11;29.30;97.00
13976;DHT22;7062;49.792;9.946;2023-07-16T10:24:39;30.70;95.20
13976;DHT22;7062;49.792;9.946;2023-07-16T10:27:04;29.30;94.90
13976;DHT22;7062;49.792;9.946;2023-07-16T10:29:30;28.30;95.80
13976;DHT22;7062;49.792;9.946;2023-07-16T10:31:58;26.40;96.00
13976;DHT22;7062;49.792;9.946;2023-07-16T10:34:23;26.10;96.90
13976;DHT22;7062;49.792;9.946;2023-07-16T10:36:50;25.90;97.80
13976;DHT22;7062;49.792;9.946;2023-07-16T10:39:16;26.00;98.10
13976;DHT22;7062;49.792;9.946;2023-07-16T10:41:42;26.80;98.30
13976;DHT22;7062;49.792;9.946;2023-07-16T10:44:08;26.80;97.30
13976;DHT22;7062;49.792;9.946;2023-07-16T10:46:36;26.80;97.90
13976;DHT22;7062;49.792;9.946;2023-07-16T10:49:02;29.90;96.20
13976;DHT22;7062;49.792;9.946;2023-07-16T10:51:28;31.90;93.70
13976;DHT22;7062;49.792;9.946;2023-07-16T10:53:57;35.00;88.50
13976;DHT22;7062;49.792;9.946;2023-07-16T10:56:23;35.70;83.70
13976;DHT22;7062;49.792;9.946;2023-07-16T10:58:49;37.40;79.20
13976;DHT22;7062;49.792;9.946;2023-07-16T11:01:15;38.90;73.30
13976;DHT22;7062;49.792;9.946;2023-07-16T11:03:40;39.00;71.60
13976;DHT22;7062;49.792;9.946;2023-07-16T11:06:09;38.00;70.40
13976;DHT22;7062;49.792;9.946;2023-07-16T11:08:35;34.90;72.10
13976;DHT22;7062;49.792;9.946;2023-07-16T11:11:01;36.70;71.70
13976;DHT22;7062;49.792;9.946;2023-07-16T11:13:27;36.60;69.70
13976;DHT22;7062;49.792;9.946;2023-07-16T11:15:53;37.90;68.30
13976;DHT22;7062;49.792;9.946;2023-07-16T11:18:22;38.60;66.30
13976;DHT22;7062;49.792;9.946;2023-07-16T11:20:53;35.70;66.20
13976;DHT22;7062;49.792;9.946;2023-07-16T11:23:19;33.80;67.90
13976;DHT22;7062;49.792;9.946;2023-07-16T11:25:52;34.40;70.20
13976;DHT22;7062;49.792;9.946;2023-07-16T11:28:17;31.30;74.90
13976;DHT22;7062;49.792;9.946;2023-07-16T11:30:43;30.50;75.50
13976;DHT22;7062;49.792;9.946;2023-07-16T11:33:12;30.10;77.00
13976;DHT22;7062;49.792;9.946;2023-07-16T11:35:38;28.60;79.30
13976;DHT22;7062;49.792;9.946;2023-07-16T11:38:05;31.90;76.90
13976;DHT22;7062;49.792;9.946;2023-07-16T11:40:34;31.00;75.30
13976;DHT22;7062;49.792;9.946;2023-07-16T11:43:11;29.80;77.60
13976;DHT22;7062;49.792;9.946;2023-07-16T11:45:37;33.90;75.20
13976;DHT22;7062;49.792;9.946;2023-07-16T11:48:04;32.70;72.10
13976;DHT22;7062;49.792;9.946;2023-07-16T11:50:30;34.50;73.50
13976;DHT22;7062;49.792;9.946;2023-07-16T11:52:59;34.60;71.00
13976;DHT22;7062;49.792;9.946;2023-07-16T11:55:24;36.40;67.20
13976;DHT22;7062;49.792;9.946;2023-07-16T11:57:51;37.30;67.50
13976;DHT22;7062;49.792;9.946;2023-07-16T12:00:16;37.80;67.30
13976;DHT22;7062;49.792;9.946;2023-07-16T12:02:43;36.20;67.90
13976;DHT22;7062;49.792;9.946;2023-07-16T12:05:16;35.40;68.30
13976;DHT22;7062;49.792;9.946;2023-07-16T12:07:42;37.70;67.00
13976;DHT22;7062;49.792;9.946;2023-07-16T12:10:08;34.30;67.00
13976;DHT22;7062;49.792;9.946;2023-07-16T12:12:34;33.20;69.30
13976;DHT22;7062;49.792;9.946;2023-07-16T12:15:07;34.20;71.30
13976;DHT22;7062;49.792;9.946;2023-07-16T12:17:33;32.70;73.20
13976;DHT22;7062;49.792;9.946;2023-07-16T12:20:00;34.10;71.70
13976;DHT22;7062;49.792;9.946;2023-07-16T12:22:26;33.60;69.10
13976;DHT22;7062;49.792;9.946;2023-07-16T12:24:52;31.20;72.70
13976;DHT22;7062;49.792;9.946;2023-07-16T12:27:18;31.50;73.30
13976;DHT22;7062;49.792;9.946;2023-07-16T12:29:44;32.70;71.90
13976;DHT22;7062;49.792;9.946;2023-07-16T12:32:10;34.10;70.80
13976;DHT22;7062;49.792;9.946;2023-07-16T12:34:36;35.00;69.40
13976;DHT22;7062;49.792;9.946;2023-07-16T12:37:02;36.30;66.80
13976;DHT22;7062;49.792;9.946;2023-07-16T12:39:28;33.20;67.70
13976;DHT22;7062;49.792;9.946;2023-07-16T12:41:54;33.00;70.00
13976;DHT22;7062;49.792;9.946;2023-07-16T12:44:19;33.50;69.20
13976;DHT22;7062;49.792;9.946;2023-07-16T12:46:45;33.80;68.20
13976;DHT22;7062;49.792;9.946;2023-07-16T12:49:11;33.00;68.90
13976;DHT22;7062;49.792;9.946;2023-07-16T12:51:36;32.70;70.10
13976;DHT22;7062;49.792;9.946;2023-07-16T12:54:02;33.30;69.60
13976;DHT22;7062;49.792;9.946;2023-07-16T12:56:28;33.80;67.60
13976;DHT22;7062;49.792;9.946;2023-07-16T12:58:53;33.20;68.10
13976;DHT22;7062;49.792;9.946;2023-07-16T13:01:19;33.10;67.90
13976;DHT22;7062;49.792;9.946;2023-07-16T13:03:45;32.90;67.90
13976;DHT22;7062;49.792;9.946;2023-07-16T13:06:10;32.50;69.10
13976;DHT22;7062;49.792;9.946;2023-07-16T13:08:36;31.00;70.70
13976;DHT22;7062;49.792;9.946;2023-07-16T13:11:02;30.80;71.60
13976;DHT22;7062;49.792;9.946;2023-07-16T13:13:28;30.40;70.90
13976;DHT22;7062;49.792;9.946;2023-07-16T13:15:54;30.50;71.60
13976;DHT22;7062;49.792;9.946;2023-07-16T13:18:20;30.90;70.60
13976;DHT22;7062;49.792;9.946;2023-07-16T13:20:46;30.80;70.00
13976;DHT22;7062;49.792;9.946;2023-07-16T13:23:12;30.80;69.50
13976;DHT22;7062;49.792;9.946;2023-07-16T13:25:37;30.10;70.60
13976;DHT22;7062;49.792;9.946;2023-07-16T13:28:05;30.10;71.70
13976;DHT22;7062;49.792;9.946;2023-07-16T13:30:31;30.30;71.00
13976;DHT22;7062;49.792;9.946;2023-07-16T13:32:56;31.10;70.00
13976;DHT22;7062;49.792;9.946;2023-07-16T13:35:22;31.50;68.00
13976;DHT22;7062;49.792;9.946;2023-07-16T13:37:48;31.10;69.20
13976;DHT22;7062;49.792;9.946;2023-07-16T13:40:15;30.70;69.90
13976;DHT22;7062;49.792;9.946;2023-07-16T13:42:40;30.50;70.00
13976;DHT22;7062;49.792;9.946;2023-07-16T13:45:06;30.00;71.00
13976;DHT22;7062;49.792;9.946;2023-07-16T13:47:32;30.40;71.20
13976;DHT22;7062;49.792;9.946;2023-07-16T13:49:58;30.00;70.80
13976;DHT22;7062;49.792;9.946;2023-07-16T13:52:23;30.20;70.70
13976;DHT22;7062;49.792;9.946;2023-07-16T13:54:49;29.60;71.70
13976;DHT22;7062;49.792;9.946;2023-07-16T13:57:15;29.50;71.80
13976;DHT22;7062;49.792;9.946;2023-07-16T13:59:40;28.90;73.10
13976;DHT22;7062;49.792;9.946;2023-07-16T14:02:06;29.00;73.10
13976;DHT22;7062;49.792;9.946;2023-07-16T14:04:32;29.10;73.00
13976;DHT22;7062;49.792;9.946;2023-07-16T14:06:59;30.00;72.40
13976;DHT22;7062;49.792;9.946;2023-07-16T14:09:24;29.60;70.90
13976;DHT22;7062;49.792;9.946;2023-07-16T14:11:50;29.80;70.90
13976;DHT22;7062;49.792;9.946;2023-07-16T14:14:17;29.90;70.80
13976;DHT22;7062;49.792;9.946;2023-07-16T14:16:43;30.30;70.40
13976;DHT22;7062;49.792;9.946;2023-07-16T14:19:09;31.00;69.70
13976;DHT22;7062;49.792;9.946;2023-07-16T14:21:35;31.80;67.00
13976;DHT22;7062;49.792;9.946;2023-07-16T14:24:00;31.40;66.20
13976;DHT22;7062;49.792;9.946;2023-07-16T14:26:26;31.30;65.50
13976;DHT22;7062;49.792;9.946;2023-07-16T14:28:52;31.40;65.50
13976;DHT22;7062;49.792;9.946;2023-07-16T14:31:18;31.50;64.90
13976;DHT22;7062;49.792;9.946;2023-07-16T14:33:43;30.50;66.50
13976;DHT22;7062;49.792;9.946;2023-07-16T14:36:09;30.70;67.20
13976;DHT22;7062;49.792;9.946;2023-07-16T14:38:35;31.00;66.60
13976;DHT22;7062;49.792;9.946;2023-07-16T14:41:00;30.10;67.10
13976;DHT22;7062;49.792;9.946;2023-07-16T14:43:26;30.20;66.20
13976;DHT22;7062;49.792;9.946;2023-07-16T14:45:52;30.30;66.80
13976;DHT22;7062;49.792;9.946;2023-07-16T14:48:17;30.10;66.70
13976;DHT22;7062;49.792;9.946;2023-07-16T14:50:43;29.90;67.00
13976;DHT22;7062;49.792;9.946;2023-07-16T14:53:08;30.00;66.70
13976;DHT22;7062;49.792;9.946;2023-07-16T14:55:35;29.70;66.90
13976;DHT22;7062;49.792;9.946;2023-07-16T14:58:01;29.30;67.80
13976;DHT22;7062;49.792;9.946;2023-07-16T15:00:27;29.90;68.20
13976;DHT22;7062;49.792;9.946;2023-07-16T15:02:53;30.30;67.40
13976;DHT22;7062;49.792;9.946;2023-07-16T15:05:19;30.50;66.60
13976;DHT22;7062;49.792;9.946;2023-07-16T15:07:45;30.90;66.60
13976;DHT22;7062;49.792;9.946;2023-07-16T15:10:10;30.80;66.60
13976;DHT22;7062;49.792;9.946;2023-07-16T15:12:36;31.10;66.20
13976;DHT22;7062;49.792;9.946;2023-07-16T15:15:02;30.70;65.80
13976;DHT22;7062;49.792;9.946;2023-07-16T15:17:29;29.70;66.60
13976;DHT22;7062;49.792;9.946;2023-07-16T15:19:54;29.40;67.10
13976;DHT22;7062;49.792;9.946;2023-07-16T15:22:20;30.00;67.00
13976;DHT22;7062;49.792;9.946;2023-07-16T15:24:46;30.20;66.70
13976;DHT22;7062;49.792;9.946;2023-07-16T15:27:12;29.60;66.60
13976;DHT22;7062;49.792;9.946;2023-07-16T15:29:38;29.90;67.20
13976;DHT22;7062;49.792;9.946;2023-07-16T15:32:05;29.80;67.70
13976;DHT22;7062;49.792;9.946;2023-07-16T15:34:31;30.30;66.80
13976;DHT22;7062;49.792;9.946;2023-07-16T15:36:57;30.50;66.50
13976;DHT22;7062;49.792;9.946;2023-07-16T15:39:22;30.50;67.10
13976;DHT22;7062;49.792;9.946;2023-07-16T15:41:48;30.90;66.90
13976;DHT22;7062;49.792;9.946;2023-07-16T15:44:14;31.20;66.30
13976;DHT22;7062;49.792;9.946;2023-07-16T15:46:40;30.70;66.40
13976;DHT22;7062;49.792;9.946;2023-07-16T15:49:05;30.40;66.80